Time;durP1;ratioP1;P1;durP2;ratioP2;P2;SDS_P1;SDS_P2;PMS_P1;PMS_P2;Temp;Humidity;BMP_temperature;BMP_pressure;BME280_temperature;BME280_humidity;BME280_pressure;Samples;Min_cycle;Max_cycle;Signal;HPM_P1;HPM_P2
2021/03/12 00:02:25;;;;;;;5.18;1.52;;;;;;;4.29;85.67;99692.41;5018978;28;20053;-77
2021/03/12 00:04:50;;;;;;;7.15;1.55;;;;;;;4.31;85.93;99701.84;5013680;28;20044;-74
2021/03/12 00:07:16;;;;;;;9.50;1.50;;;;;;;4.35;85.76;99704.06;5041375;28;20574;-76
2021/03/12 00:09:41;;;;;;;9.45;1.65;;;;;;;4.33;85.63;99715.50;5032281;28;20053;-75
2021/03/12 00:12:08;;;;;;;8.07;1.65;;;;;;;4.39;85.09;99721.00;5066900;28;20045;-77
2021/03/12 00:14:34;;;;;;;4.38;1.23;;;;;;;4.41;85.11;99726.88;5029459;28;20046;-77
2021/03/12 00:17:00;;;;;;;6.38;1.45;;;;;;;4.46;85.19;99729.06;5052300;28;20069;-78
2021/03/12 00:19:26;;;;;;;5.32;1.30;;;;;;;4.39;84.84;99735.75;5019834;28;20068;-76
2021/03/12 00:21:52;;;;;;;6.35;1.30;;;;;;;4.37;85.39;99742.84;5019567;28;20072;-77
2021/03/12 00:24:17;;;;;;;6.15;1.30;;;;;;;4.34;85.82;99743.13;5046794;28;20069;-78
2021/03/12 00:26:45;;;;;;;6.53;1.42;;;;;;;4.31;85.43;99743.38;5038437;28;20044;-77
2021/03/12 00:29:10;;;;;;;4.60;1.13;;;;;;;4.38;85.39;99750.50;5042296;28;20029;-75
2021/03/12 00:31:36;;;;;;;7.45;1.70;;;;;;;4.39;85.15;99757.34;5035350;28;20045;-76
2021/03/12 00:34:02;;;;;;;6.45;1.70;;;;;;;4.46;84.86;99766.28;5053353;28;20175;-78
2021/03/12 00:36:27;;;;;;;4.45;1.08;;;;;;;4.51;85.00;99773.66;5047822;28;20117;-77
2021/03/12 00:38:53;;;;;;;8.07;1.23;;;;;;;4.46;84.94;99765.44;5018946;28;20041;-76
2021/03/12 00:41:19;;;;;;;4.68;1.40;;;;;;;4.56;84.84;99773.25;5019109;28;20087;-77
2021/03/12 00:43:55;;;;;;;6.22;1.20;;;;;;;4.56;84.16;99775.84;5059138;28;20491;-77
2021/03/12 00:46:29;;;;;;;4.35;1.10;;;;;;;4.52;84.30;99772.72;5014308;28;20037;-75
2021/03/12 00:48:55;;;;;;;5.57;1.40;;;;;;;4.55;84.34;99780.22;5031703;28;20131;-77
2021/03/12 00:51:22;;;;;;;7.43;1.02;;;;;;;4.54;84.06;99772.56;5034297;28;20037;-79
2021/03/12 00:54:13;;;;;;;7.78;1.38;;;;;;;4.62;83.63;99789.16;5009560;28;20100;-77
2021/03/12 00:56:43;;;;;;;8.82;1.42;;;;;;;4.51;84.50;99773.66;5027882;28;20053;-77
2021/03/12 00:59:09;;;;;;;6.35;1.60;;;;;;;4.51;83.75;99781.44;5031039;28;20056;-76
2021/03/12 01:01:45;;;;;;;7.38;1.25;;;;;;;4.51;83.98;99780.63;5031471;28;20049;-77
2021/03/12 01:04:10;;;;;;;8.85;1.50;;;;;;;4.41;85.02;99780.59;5035619;28;20049;-77
2021/03/12 01:06:36;;;;;;;7.93;1.13;;;;;;;4.45;84.71;99787.16;5029356;28;20124;-76
2021/03/12 01:09:04;;;;;;;7.30;1.23;;;;;;;4.51;84.55;99786.63;5026742;28;20041;-75
2021/03/12 01:11:32;;;;;;;7.78;1.50;;;;;;;4.54;84.38;99783.78;5035330;28;20041;-78
2021/03/12 01:13:59;;;;;;;8.10;1.70;;;;;;;4.54;84.96;99794.19;5049080;28;20049;-79
2021/03/12 01:16:31;;;;;;;5.75;1.40;;;;;;;4.48;84.22;99794.69;5027511;28;20079;-77
2021/03/12 01:18:59;;;;;;;13.18;1.70;;;;;;;4.44;84.69;99804.50;5022599;28;20045;-75
2021/03/12 01:21:29;;;;;;;5.00;1.50;;;;;;;4.47;84.43;99804.25;5048610;28;20064;-76
2021/03/12 01:23:57;;;;;;;8.73;1.60;;;;;;;4.48;84.40;99802.47;5028270;28;20063;-76
2021/03/12 01:26:24;;;;;;;12.43;1.90;;;;;;;4.45;84.73;99806.16;5031825;28;20041;-76
2021/03/12 01:29:00;;;;;;;7.72;1.60;;;;;;;4.38;84.49;99799.03;5019018;28;20061;-78
2021/03/12 01:31:45;;;;;;;6.97;1.45;;;;;;;4.32;84.23;99794.34;5033137;28;20045;-75
2021/03/12 01:34:14;;;;;;;8.65;1.92;;;;;;;4.39;84.51;99804.09;5052709;28;20118;-76
2021/03/12 01:36:41;;;;;;;14.90;1.83;;;;;;;4.38;83.82;99801.63;5033394;28;20502;-76
2021/03/12 01:39:08;;;;;;;10.60;1.75;;;;;;;4.32;84.50;99802.16;5021528;28;20196;-75
2021/03/12 01:41:34;;;;;;;10.82;1.83;;;;;;;4.35;84.30;99802.72;5049562;28;20044;-75
2021/03/12 01:44:06;;;;;;;14.30;2.10;;;;;;;4.40;83.73;99799.72;5018419;28;20045;-76
2021/03/12 01:46:35;;;;;;;9.20;1.73;;;;;;;4.40;84.33;99800.53;5022649;28;20752;-77
2021/03/12 01:49:01;;;;;;;14.93;1.70;;;;;;;4.43;84.18;99802.06;5032942;28;20041;-74
2021/03/12 01:51:27;;;;;;;5.75;1.77;;;;;;;4.42;84.08;99797.81;5048150;28;20045;-75
2021/03/12 01:53:53;;;;;;;14.95;2.40;;;;;;;4.39;83.45;99800.66;5035592;28;20056;-75
2021/03/12 01:56:19;;;;;;;6.75;1.67;;;;;;;4.36;83.91;99798.34;5012066;28;20052;-77
2021/03/12 01:58:52;;;;;;;8.80;1.75;;;;;;;4.31;84.33;99806.50;5015760;28;20044;-76
2021/03/12 02:01:35;;;;;;;11.20;2.38;;;;;;;4.28;84.46;99810.19;5039117;28;20506;-75
2021/03/12 02:04:05;;;;;;;9.05;1.80;;;;;;;4.16;84.70;99793.03;5031901;28;20072;-77
2021/03/12 02:06:45;;;;;;;6.82;1.65;;;;;;;4.25;84.17;99800.03;5014576;28;20095;-78
2021/03/12 02:09:13;;;;;;;10.32;2.22;;;;;;;4.21;84.87;99801.25;5015221;28;20054;-76
2021/03/12 02:11:44;;;;;;;7.78;1.88;;;;;;;4.21;84.55;99821.22;5028412;28;20053;-77
2021/03/12 02:14:27;;;;;;;14.32;2.42;;;;;;;4.19;84.40;99821.31;5015468;28;20041;-75
2021/03/12 02:17:01;;;;;;;8.82;2.05;;;;;;;4.21;84.96;99829.81;5026560;28;20055;-75
2021/03/12 02:19:43;;;;;;;9.15;2.20;;;;;;;4.21;85.05;99826.41;5032824;28;20045;-76
2021/03/12 02:22:11;;;;;;;14.33;2.43;;;;;;;4.26;84.98;99834.63;5034308;28;20063;-78
2021/03/12 02:24:54;;;;;;;9.98;1.95;;;;;;;4.34;84.41;99834.00;5036132;28;20060;-76
2021/03/12 02:27:34;;;;;;;9.38;2.20;;;;;;;4.39;84.42;99837.00;5045673;28;20072;-76
2021/03/12 02:30:05;;;;;;;14.52;2.70;;;;;;;4.43;84.12;99836.63;5015525;28;20137;-78
2021/03/12 02:32:44;;;;;;;7.97;1.90;;;;;;;4.49;83.68;99843.91;5018155;28;20048;-75
2021/03/12 02:35:20;;;;;;;12.07;2.00;;;;;;;4.53;83.70;99836.66;5026763;28;20495;-76
2021/03/12 02:37:52;;;;;;;14.48;2.20;;;;;;;4.52;84.13;99842.00;5009459;28;20056;-77
2021/03/12 02:40:20;;;;;;;9.27;2.25;;;;;;;4.52;84.37;99847.19;5017666;28;20048;-75
2021/03/12 02:42:58;;;;;;;10.43;2.25;;;;;;;4.53;84.07;99846.25;5026702;28;20045;-76
2021/03/12 02:45:25;;;;;;;18.98;2.80;;;;;;;4.53;84.20;99844.47;5018895;28;20044;-76
2021/03/12 02:48:02;;;;;;;15.15;2.92;;;;;;;4.54;84.01;99850.47;5043154;28;20426;-77
2021/03/12 02:50:31;;;;;;;15.70;2.95;;;;;;;4.48;84.64;99854.41;5014379;28;20046;-77
2021/03/12 02:53:01;;;;;;;14.63;2.70;;;;;;;4.49;84.70;99859.47;5032151;28;20045;-76
2021/03/12 02:55:30;;;;;;;12.20;3.13;;;;;;;4.48;84.64;99857.00;5017943;28;20534;-77
2021/03/12 02:58:00;;;;;;;11.77;2.90;;;;;;;4.51;85.03;99861.94;5016085;28;20053;-77
2021/03/12 03:00:27;;;;;;;16.90;3.28;;;;;;;4.50;84.88;99847.31;5004441;28;20049;-75
2021/03/12 03:03:11;;;;;;;;;;;;;;;4.64;85.01;99872.94;5036146;28;20180;-76
2021/03/12 03:05:47;;;;;;;17.45;3.25;;;;;;;4.59;85.09;99869.91;5013518;28;19936;-77
2021/03/12 03:08:14;;;;;;;12.95;3.28;;;;;;;4.62;84.94;99880.06;5030418;28;20128;-77
2021/03/12 03:10:42;;;;;;;24.45;4.10;;;;;;;4.66;84.57;99878.84;5026257;28;20047;-77
2021/03/12 03:13:18;;;;;;;12.60;3.22;;;;;;;4.68;84.73;99879.53;5089982;27;20373;-75
2021/03/12 03:15:44;;;;;;;20.58;3.88;;;;;;;4.66;85.36;99891.00;5060329;28;20044;-76
2021/03/12 03:18:12;;;;;;;16.58;3.65;;;;;;;4.67;85.03;99888.28;5046070;28;20082;-79
2021/03/12 03:20:42;;;;;;;18.27;3.65;;;;;;;4.71;84.79;99898.41;5019506;28;20044;-78
2021/03/12 03:23:10;;;;;;;15.40;3.67;;;;;;;4.74;84.55;99887.75;5037930;28;20587;-80
2021/03/12 03:25:36;;;;;;;20.35;4.18;;;;;;;4.75;84.73;99897.22;5035934;28;20056;-79
2021/03/12 03:28:06;;;;;;;18.73;3.90;;;;;;;4.70;85.50;99901.97;5037934;28;20033;-78
2021/03/12 03:30:31;;;;;;;18.60;4.15;;;;;;;4.74;84.88;99898.97;5034982;28;20040;-78
2021/03/12 03:33:03;;;;;;;12.85;4.30;;;;;;;4.81;84.80;99913.09;5017366;28;20185;-77
2021/03/12 03:35:30;;;;;;;14.43;4.22;;;;;;;4.72;84.97;99907.84;5017355;28;20049;-77
2021/03/12 03:37:56;;;;;;;15.93;4.00;;;;;;;4.79;84.99;99915.00;5032970;28;20064;-77
2021/03/12 03:40:22;;;;;;;20.23;3.95;;;;;;;4.82;84.21;99916.50;5041413;28;20064;-75
2021/03/12 03:42:49;;;;;;;18.52;4.40;;;;;;;4.77;84.97;99924.72;5030234;28;20461;-77
2021/03/12 03:45:17;;;;;;;18.27;4.15;;;;;;;4.80;84.91;99926.22;5022550;28;20060;-78
2021/03/12 03:47:50;;;;;;;17.67;4.13;;;;;;;4.85;84.65;99929.25;5039896;28;20037;-74
2021/03/12 03:50:17;;;;;;;14.13;3.65;;;;;;;4.87;83.65;99928.16;5036252;28;20067;-77
2021/03/12 03:52:43;;;;;;;13.98;3.97;;;;;;;4.79;84.99;99921.97;5044536;28;20045;-76
2021/03/12 03:55:13;;;;;;;21.73;4.40;;;;;;;4.76;84.53;99915.25;5018867;28;20695;-78
2021/03/12 03:57:39;;;;;;;15.05;3.40;;;;;;;4.72;83.86;99929.47;5032953;28;20041;-78
2021/03/12 04:00:06;;;;;;;21.80;4.38;;;;;;;4.67;83.86;99924.66;5012947;28;20060;-72
2021/03/12 04:02:46;;;;;;;18.38;4.70;;;;;;;4.64;84.82;99924.09;5041894;28;20051;-75
2021/03/12 04:05:17;;;;;;;22.15;4.28;;;;;;;4.71;83.96;99930.44;5020461;28;20044;-79
2021/03/12 04:07:52;;;;;;;17.75;3.92;;;;;;;4.77;83.35;99935.09;5038332;28;20109;-76
2021/03/12 04:10:19;;;;;;;15.65;4.70;;;;;;;4.82;83.03;99943.34;5054267;28;20041;-77
2021/03/12 04:12:47;;;;;;;20.20;4.22;;;;;;;4.86;83.13;99955.13;5021424;28;20068;-75
2021/03/12 04:15:15;;;;;;;22.52;3.38;;;;;;;4.84;82.26;99954.41;5011322;28;20049;-78
2021/03/12 04:17:41;;;;;;;16.88;4.07;;;;;;;4.80;82.39;99958.25;5052808;28;20053;-78
2021/03/12 04:20:08;;;;;;;15.93;4.22;;;;;;;4.85;82.24;99963.03;5051070;28;20052;-78
2021/03/12 04:22:38;;;;;;;16.02;3.45;;;;;;;4.90;80.72;99962.63;5046332;28;20048;-78
2021/03/12 04:25:05;;;;;;;17.88;3.70;;;;;;;4.86;81.22;99964.69;5021046;28;20045;-76
2021/03/12 04:27:32;;;;;;;17.40;4.05;;;;;;;4.81;80.86;99974.63;5017933;28;20056;-78
2021/03/12 04:29:58;;;;;;;19.02;3.85;;;;;;;4.91;79.85;99983.31;5013011;28;20800;-78
2021/03/12 04:32:26;;;;;;;16.80;3.70;;;;;;;4.82;81.44;99984.06;5021869;28;20040;-77
2021/03/12 04:34:52;;;;;;;14.98;3.40;;;;;;;4.74;82.62;99992.50;5037054;28;20056;-78
2021/03/12 04:37:20;;;;;;;13.15;3.38;;;;;;;4.70;82.33;99985.09;5007127;28;20041;-79
2021/03/12 04:39:48;;;;;;;19.10;3.85;;;;;;;4.76;81.77;100002.78;5006534;28;20044;-77
2021/03/12 04:42:17;;;;;;;15.48;3.65;;;;;;;4.82;80.59;100004.84;5024128;28;20038;-75
2021/03/12 04:44:43;;;;;;;14.38;3.58;;;;;;;4.77;81.44;100018.25;5019778;28;20044;-76
2021/03/12 04:47:13;;;;;;;14.88;3.67;;;;;;;4.64;82.48;100015.81;5017398;28;20049;-79
2021/03/12 04:49:43;;;;;;;23.83;4.00;;;;;;;4.68;81.30;100019.00;5022953;28;20123;-78
2021/03/12 04:52:09;;;;;;;13.13;3.28;;;;;;;4.74;81.30;100028.06;5020518;28;20071;-74
2021/03/12 04:54:35;;;;;;;19.23;3.50;;;;;;;4.71;80.95;100030.91;5022501;28;20084;-79
2021/03/12 04:57:00;;;;;;;15.00;3.50;;;;;;;4.68;81.52;100030.19;5037696;28;20049;-79
2021/03/12 04:59:31;;;;;;;12.80;3.13;;;;;;;4.68;81.09;100022.41;5020479;28;20044;-78
2021/03/12 05:01:57;;;;;;;17.17;3.25;;;;;;;4.75;80.52;100040.13;5034463;28;20032;-78
2021/03/12 05:04:24;;;;;;;15.55;3.25;;;;;;;4.69;80.28;100028.44;5007232;28;20126;-76
2021/03/12 05:06:52;;;;;;;16.48;3.05;;;;;;;4.71;80.35;100042.13;5018862;28;20060;-78
2021/03/12 05:09:40;;;;;;;17.38;3.10;;;;;;;4.70;79.99;100042.25;5015877;28;20041;-77
2021/03/12 05:12:10;;;;;;;12.85;3.03;;;;;;;4.73;79.93;100049.78;5024721;28;20037;-78
2021/03/12 05:14:38;;;;;;;18.05;2.70;;;;;;;4.73;78.50;100052.38;5034362;28;20049;-79
2021/03/12 05:17:03;;;;;;;20.27;3.28;;;;;;;4.65;79.09;100053.00;5017813;28;20047;-76
2021/03/12 05:19:29;;;;;;;24.20;2.72;;;;;;;4.63;78.54;100062.69;5058510;28;20066;-78
2021/03/12 05:21:57;;;;;;;17.20;2.70;;;;;;;4.58;79.63;100067.47;5008793;28;20037;-78
2021/03/12 05:24:25;;;;;;;18.08;3.22;;;;;;;4.56;77.95;100058.94;5023400;28;20045;-73
2021/03/12 05:26:51;;;;;;;20.77;3.15;;;;;;;4.58;78.50;100072.66;5034333;28;20076;-77
2021/03/12 05:29:22;;;;;;;18.05;2.80;;;;;;;4.47;79.34;100076.13;5010987;28;20053;-77
2021/03/12 05:31:52;;;;;;;15.65;2.28;;;;;;;4.46;78.47;100077.91;5020833;28;20065;-77
2021/03/12 05:34:18;;;;;;;19.98;3.30;;;;;;;4.51;78.21;100071.50;4983417;28;20088;-77
2021/03/12 05:36:43;;;;;;;14.98;2.58;;;;;;;4.53;78.64;100083.41;4995800;28;20109;-77
2021/03/12 05:39:12;;;;;;;16.63;2.65;;;;;;;4.48;79.19;100088.97;5037987;28;20036;-75
2021/03/12 05:41:38;;;;;;;12.70;3.20;;;;;;;4.58;78.22;100088.25;5034588;28;20040;-75
2021/03/12 05:44:05;;;;;;;14.65;2.65;;;;;;;4.52;78.72;100092.16;5020273;28;20037;-77
2021/03/12 05:46:34;;;;;;;13.32;2.75;;;;;;;4.69;77.96;100106.38;5053337;28;20045;-76
2021/03/12 05:49:01;;;;;;;16.35;3.10;;;;;;;4.59;78.86;100106.28;5005307;28;20044;-76
2021/03/12 05:51:27;;;;;;;18.35;2.90;;;;;;;4.58;77.90;100104.66;5002764;28;20069;-78
2021/03/12 05:53:54;;;;;;;16.40;2.80;;;;;;;4.61;77.57;100111.34;5021011;28;20059;-77
2021/03/12 05:56:20;;;;;;;14.20;2.53;;;;;;;4.55;77.77;100115.28;5002648;28;20041;-73
2021/03/12 05:58:54;;;;;;;17.60;3.55;;;;;;;4.61;76.88;100108.75;5030175;28;20102;-78
2021/03/12 06:01:20;;;;;;;21.30;2.75;;;;;;;4.66;76.37;100119.63;5002341;28;20073;-77
2021/03/12 06:03:46;;;;;;;17.02;2.85;;;;;;;4.58;76.53;100117.63;5019115;28;20087;-77
2021/03/12 06:06:11;;;;;;;17.70;2.75;;;;;;;4.49;77.55;100131.34;5004824;28;20053;-76
2021/03/12 06:08:39;;;;;;;21.35;2.50;;;;;;;4.35;78.27;100132.47;5010737;28;20116;-77
2021/03/12 06:11:05;;;;;;;19.38;3.08;;;;;;;4.45;77.41;100133.38;5019105;28;20448;-78
2021/03/12 06:13:55;;;;;;;15.95;3.15;;;;;;;4.42;78.18;100135.38;5030424;28;20067;-76
2021/03/12 06:16:49;;;;;;;16.17;2.53;;;;;;;4.29;78.31;100149.34;5015776;28;20126;-77
2021/03/12 06:19:19;;;;;;;17.95;2.78;;;;;;;4.41;78.20;100146.72;5016278;28;20132;-77
2021/03/12 06:22:07;;;;;;;18.33;3.53;;;;;;;4.49;77.43;100155.53;5012791;28;20065;-74
2021/03/12 06:24:36;;;;;;;14.48;3.10;;;;;;;4.55;77.81;100153.41;5030261;28;20063;-74
2021/03/12 06:27:29;;;;;;;15.55;3.50;;;;;;;4.63;77.35;100164.00;5033480;28;20041;-77
2021/03/12 06:30:07;;;;;;;13.57;2.77;;;;;;;4.57;78.40;100164.50;5049211;28;20386;-74
2021/03/12 06:32:43;;;;;;;22.17;3.63;;;;;;;4.57;77.89;100162.72;5003678;28;20045;-76
2021/03/12 06:35:47;;;;;;;18.35;2.92;;;;;;;4.80;76.76;100186.03;5002126;28;20052;-77
2021/03/12 06:38:31;;;;;;;12.25;2.75;;;;;;;4.74;78.71;100189.16;5019673;28;20079;-77
2021/03/12 06:41:04;;;;;;;10.38;3.15;;;;;;;4.80;77.23;100183.44;5000055;28;20087;-77
2021/03/12 06:43:39;;;;;;;19.42;2.83;;;;;;;4.82;76.87;100195.38;5034777;28;20085;-76
2021/03/12 06:46:05;;;;;;;18.98;3.05;;;;;;;4.82;76.24;100190.19;5028228;28;20060;-76
2021/03/12 06:49:00;;;;;;;18.60;3.53;;;;;;;4.82;77.38;100192.78;5018339;28;20047;-73
2021/03/12 06:52:03;;;;;;;14.32;3.28;;;;;;;4.88;76.33;100199.28;5028433;28;21393;-75
2021/03/12 06:54:32;;;;;;;14.95;3.17;;;;;;;4.84;77.17;100203.03;5026561;28;20128;-78
2021/03/12 06:57:20;;;;;;;14.10;2.67;;;;;;;4.96;75.33;100204.66;5012464;28;20045;-78
2021/03/12 07:00:08;;;;;;;12.75;2.80;;;;;;;5.01;74.75;100205.13;5003453;28;20404;-76
2021/03/12 07:02:38;;;;;;;17.73;2.50;;;;;;;5.00;75.57;100213.88;5014111;28;20099;-77
2021/03/12 07:05:09;;;;;;;14.63;2.45;;;;;;;4.97;74.94;100206.34;5017994;28;20402;-77
2021/03/12 07:07:57;;;;;;;17.75;2.70;;;;;;;5.00;75.95;100213.88;5003507;28;20049;-78
2021/03/12 07:10:46;;;;;;;13.25;2.75;;;;;;;4.97;75.97;100229.72;4999578;28;20068;-76
2021/03/12 07:13:43;;;;;;;17.73;3.03;;;;;;;5.09;75.26;100220.09;4988373;28;20061;-76
2021/03/12 07:16:16;;;;;;;11.73;2.58;;;;;;;5.06;76.28;100234.16;5032148;28;20081;-77
2021/03/12 07:18:47;;;;;;;16.45;3.00;;;;;;;5.18;74.28;100234.13;5016251;28;20053;-78
2021/03/12 07:21:19;;;;;;;12.75;2.28;;;;;;;5.20;73.90;100243.47;5026543;28;20041;-73
2021/03/12 07:23:52;;;;;;;15.30;2.70;;;;;;;5.22;74.54;100240.75;5020710;28;20044;-77
2021/03/12 07:26:24;;;;;;;16.35;2.22;;;;;;;5.24;73.94;100244.03;5020745;28;20056;-76
2021/03/12 07:29:00;;;;;;;11.95;2.78;;;;;;;5.31;74.15;100254.75;5008106;28;20049;-76
2021/03/12 07:31:55;;;;;;;21.20;2.75;;;;;;;5.32;74.77;100261.63;5024101;28;20065;-78
2021/03/12 07:34:30;;;;;;;15.57;2.33;;;;;;;5.34;74.26;100259.72;5022771;28;20052;-75
2021/03/12 07:37:03;;;;;;;15.35;2.53;;;;;;;5.33;74.52;100261.50;5017008;28;20474;-78
2021/03/12 07:39:33;;;;;;;21.40;2.65;;;;;;;5.28;74.22;100268.03;5035061;28;20056;-78
2021/03/12 07:42:00;;;;;;;16.23;2.92;;;;;;;5.29;75.74;100265.28;5018556;28;20063;-78
2021/03/12 07:44:50;;;;;;;19.70;2.90;;;;;;;5.45;75.09;100272.69;5033053;28;20126;-79
2021/03/12 07:47:44;;;;;;;13.18;1.92;;;;;;;5.43;73.86;100270.19;5031870;28;20040;-77
2021/03/12 07:50:27;;;;;;;15.38;2.25;;;;;;;5.44;73.13;100284.88;5017286;28;20045;-77
2021/03/12 07:52:56;;;;;;;12.98;2.58;;;;;;;5.40;74.11;100288.66;4998345;28;20040;-77
2021/03/12 07:55:48;;;;;;;11.07;2.10;;;;;;;5.32;74.53;100285.84;5014535;28;20060;-77
2021/03/12 07:58:54;;;;;;;12.73;2.03;;;;;;;5.48;74.65;100285.41;5024980;28;20676;-76
2021/03/12 08:01:53;;;;;;;15.85;3.00;;;;;;;5.56;73.93;100297.84;5001932;28;20044;-78
2021/03/12 08:04:38;;;;;;;18.42;2.58;;;;;;;5.41;73.80;100294.69;5016736;28;20406;-77
2021/03/12 08:07:26;;;;;;;11.38;2.20;;;;;;;5.42;73.96;100298.94;5009318;28;20065;-76
2021/03/12 08:10:14;;;;;;;15.25;2.45;;;;;;;5.41;73.98;100294.69;5031915;28;20091;-75
2021/03/12 08:12:59;;;;;;;16.42;2.58;;;;;;;5.42;74.56;100293.72;5032742;28;20494;-77
2021/03/12 08:15:42;;;;;;;14.75;2.60;;;;;;;5.57;73.56;100297.69;5024659;28;20110;-75
2021/03/12 08:18:19;;;;;;;11.43;2.22;;;;;;;5.68;73.30;100302.03;5017886;28;20044;-78
2021/03/12 08:21:35;;;;;;;13.25;1.92;;;;;;;5.72;72.92;100293.00;5022547;28;20045;-78
2021/03/12 08:24:45;;;;;;;16.88;2.63;;;;;;;5.79;72.92;100293.34;4995223;28;20048;-77
2021/03/12 08:27:37;;;;;;;10.35;1.95;;;;;;;5.98;72.94;100303.09;5018546;28;20055;-79
2021/03/12 08:30:21;;;;;;;14.15;2.13;;;;;;;6.13;71.92;100306.19;5026139;28;20059;-76
2021/03/12 08:32:47;;;;;;;11.18;1.80;;;;;;;6.11;72.62;100314.13;5021124;28;20406;-75
2021/03/12 08:35:40;;;;;;;12.32;1.98;;;;;;;6.11;72.17;100314.13;5035448;28;20060;-77
2021/03/12 08:38:28;;;;;;;16.00;2.20;;;;;;;6.23;72.23;100313.09;5051348;28;20052;-77
2021/03/12 08:41:21;;;;;;;14.40;2.38;;;;;;;6.32;71.48;100324.50;5020584;28;20044;-75
2021/03/12 08:44:14;;;;;;;14.57;2.50;;;;;;;6.40;72.01;100322.09;5034468;28;20469;-76
2021/03/12 08:47:00;;;;;;;9.15;2.30;;;;;;;6.23;70.77;100320.91;5033053;28;21154;-77
2021/03/12 08:49:30;;;;;;;13.05;2.20;;;;;;;6.24;71.13;100321.75;5015035;28;20480;-77
2021/03/12 08:51:57;;;;;;;15.63;2.75;;;;;;;6.23;71.04;100317.47;5019318;28;20060;-77
2021/03/12 08:54:30;;;;;;;13.77;2.75;;;;;;;6.24;71.28;100311.31;4993096;28;20080;-80
2021/03/12 08:57:18;;;;;;;9.95;2.40;;;;;;;6.19;71.72;100316.09;5036043;28;20397;-76
2021/03/12 08:59:44;;;;;;;15.25;2.72;;;;;;;6.29;70.26;100326.56;5014076;28;20044;-75
2021/03/12 09:02:44;;;;;;;16.20;2.00;;;;;;;6.27;71.26;100326.66;5034012;28;20045;-77
2021/03/12 09:05:27;;;;;;;11.23;2.05;;;;;;;6.25;70.33;100318.16;5016512;28;20076;-76
2021/03/12 09:08:13;;;;;;;15.18;2.60;;;;;;;6.35;71.40;100326.88;5021097;28;20047;-76
2021/03/12 09:10:58;;;;;;;10.38;1.80;;;;;;;6.40;69.89;100331.69;5009609;28;20066;-77
2021/03/12 09:13:35;;;;;;;15.30;2.20;;;;;;;6.80;70.83;100333.53;5002169;28;20041;-77
2021/03/12 09:16:05;;;;;;;13.20;2.13;;;;;;;6.77;69.57;100321.56;4993994;28;20056;-75
2021/03/12 09:18:32;;;;;;;14.10;3.03;;;;;;;6.65;68.44;100327.84;5017535;28;20558;-75
2021/03/12 09:21:00;;;;;;;16.38;2.75;;;;;;;6.83;67.32;100325.41;5018064;28;20384;-80
2021/03/12 09:23:38;;;;;;;17.17;2.00;;;;;;;7.04;69.17;100342.78;5015429;28;20045;-76
2021/03/12 09:26:07;;;;;;;16.75;2.40;;;;;;;7.32;68.02;100331.56;5030216;28;20091;-75
2021/03/12 09:28:38;;;;;;;7.30;2.15;;;;;;;7.48;67.47;100343.25;5007970;28;20481;-74
2021/03/12 09:31:12;;;;;;;11.05;2.13;;;;;;;7.69;67.33;100332.69;5003619;28;20053;-76
2021/03/12 09:33:50;;;;;;;12.93;2.42;;;;;;;7.63;64.62;100334.06;5041760;28;20057;-75
2021/03/12 09:36:46;;;;;;;16.10;2.50;;;;;;;7.50;66.67;100330.91;5021444;28;20053;-77
2021/03/12 09:39:30;;;;;;;10.35;2.72;;;;;;;7.40;64.65;100328.28;5004014;28;20071;-77
2021/03/12 09:42:03;;;;;;;12.70;2.47;;;;;;;6.96;68.09;100339.03;5001986;28;20087;-77
2021/03/12 09:44:34;;;;;;;12.57;2.40;;;;;;;6.77;67.27;100344.19;5021032;28;20060;-77
2021/03/12 09:47:09;;;;;;;14.30;2.70;;;;;;;6.52;69.09;100343.69;5007713;28;20053;-77
2021/03/12 09:49:42;;;;;;;16.27;2.83;;;;;;;6.26;69.82;100345.06;5026713;28;20108;-76
2021/03/12 09:52:16;;;;;;;17.10;3.17;;;;;;;6.15;72.34;100345.94;5016323;28;20179;-76
2021/03/12 09:54:50;;;;;;;16.40;3.42;;;;;;;6.10;71.14;100342.88;5018494;28;20403;-77
2021/03/12 09:57:22;;;;;;;19.13;3.63;;;;;;;6.16;72.42;100355.38;5023229;28;20045;-76
2021/03/12 09:59:52;;;;;;;10.07;3.35;;;;;;;6.21;70.91;100356.66;5030265;28;20445;-77
2021/03/12 10:02:55;;;;;;;16.33;3.70;;;;;;;6.36;70.21;100354.56;5027907;28;20103;-77
2021/03/12 10:05:31;;;;;;;17.17;3.60;;;;;;;6.53;70.69;100358.34;5004443;28;20043;-77
2021/03/12 10:08:03;;;;;;;16.23;4.05;;;;;;;6.72;69.06;100346.38;5018335;28;20134;-78
2021/03/12 10:10:40;;;;;;;;;;;;;;;6.80;68.37;100343.94;5001851;28;20127;-77
2021/03/12 10:13:06;;;;;;;14.63;3.30;;;;;;;7.00;67.77;100340.41;5007079;28;19967;-77
2021/03/12 10:15:41;;;;;;;13.90;3.35;;;;;;;7.54;68.45;100343.53;5023932;28;20049;-78
2021/03/12 10:18:33;;;;;;;16.33;3.28;;;;;;;7.76;66.52;100337.22;5028276;28;20178;-78
2021/03/12 10:21:08;;;;;;;19.30;3.10;;;;;;;7.96;67.56;100335.41;5051800;28;20584;-78
2021/03/12 10:23:33;;;;;;;14.73;3.10;;;;;;;7.86;65.29;100341.63;4999454;28;20480;-78
2021/03/12 10:26:04;;;;;;;15.43;3.15;;;;;;;7.76;65.03;100334.63;5023305;28;20057;-77
2021/03/12 10:28:30;;;;;;;11.57;3.25;;;;;;;7.56;65.43;100333.78;5017794;28;20045;-77
2021/03/12 10:30:57;;;;;;;18.45;3.92;;;;;;;7.36;63.64;100330.31;5036130;28;20055;-77
2021/03/12 10:33:25;;;;;;;13.18;2.80;;;;;;;7.29;65.79;100333.63;5010179;28;20064;-77
2021/03/12 10:35:57;;;;;;;16.10;2.70;;;;;;;7.25;64.28;100337.47;5020921;28;20056;-76
2021/03/12 10:38:27;;;;;;;15.30;2.70;;;;;;;7.41;65.51;100337.75;5019965;28;20724;-77
2021/03/12 10:40:58;;;;;;;9.52;2.90;;;;;;;7.40;63.95;100336.94;5016197;28;20036;-76
2021/03/12 10:43:29;;;;;;;14.75;3.10;;;;;;;7.32;64.53;100331.56;4999682;28;20045;-76
2021/03/12 10:46:00;;;;;;;17.90;3.47;;;;;;;7.35;64.12;100335.69;5028544;28;20076;-78
2021/03/12 10:48:36;;;;;;;16.58;3.40;;;;;;;7.39;65.30;100348.31;5013883;28;20051;-76
2021/03/12 10:51:04;;;;;;;18.08;3.45;;;;;;;7.54;64.00;100334.91;5042933;28;20085;-75
2021/03/12 10:53:31;;;;;;;15.98;3.05;;;;;;;7.44;64.21;100336.66;5056943;28;20068;-76
2021/03/12 10:56:04;;;;;;;14.75;3.13;;;;;;;7.46;65.07;100335.56;5024021;28;20524;-76
2021/03/12 10:58:32;;;;;;;11.43;3.28;;;;;;;7.40;63.34;100329.13;5017494;28;20309;-75
2021/03/12 11:01:13;;;;;;;12.05;2.88;;;;;;;7.67;63.93;100326.78;5027712;28;20048;-77
2021/03/12 11:03:42;;;;;;;13.35;3.30;;;;;;;7.66;64.61;100330.34;5034392;28;20437;-76
2021/03/12 11:06:10;;;;;;;15.32;3.75;;;;;;;7.92;65.91;100333.22;5017423;28;20553;-76
2021/03/12 11:08:36;;;;;;;7.88;3.05;;;;;;;8.04;62.63;100323.44;5034779;28;20048;-77
2021/03/12 11:11:05;;;;;;;12.23;3.47;;;;;;;8.19;64.14;100332.47;5040316;28;20136;-78
2021/03/12 11:13:33;;;;;;;16.50;3.38;;;;;;;7.98;64.09;100330.88;5034061;28;20029;-77
2021/03/12 11:15:59;;;;;;;16.08;3.47;;;;;;;7.91;65.27;100327.19;5028499;28;20041;-78
2021/03/12 11:18:26;;;;;;;13.80;3.33;;;;;;;7.76;64.78;100325.94;5013037;28;20051;-77
2021/03/12 11:20:53;;;;;;;12.38;2.90;;;;;;;7.62;64.16;100326.38;5019589;28;20041;-77
2021/03/12 11:23:18;;;;;;;13.70;3.53;;;;;;;7.51;65.29;100325.53;5015263;28;20113;-77
2021/03/12 11:25:44;;;;;;;12.55;3.60;;;;;;;7.50;65.74;100320.47;5033184;28;20486;-76
2021/03/12 11:28:10;;;;;;;11.52;3.47;;;;;;;7.31;66.52;100316.03;5016453;28;20037;-76
2021/03/12 11:30:36;;;;;;;17.40;3.60;;;;;;;7.12;66.64;100314.22;5053175;28;20047;-75
2021/03/12 11:33:03;;;;;;;15.13;3.33;;;;;;;7.09;67.17;100320.53;5024648;28;20041;-79
2021/03/12 11:35:29;;;;;;;13.60;3.65;;;;;;;7.11;67.33;100317.81;5033094;28;20045;-77
2021/03/12 11:37:54;;;;;;;17.73;3.53;;;;;;;7.02;67.10;100311.59;5004663;28;20041;-77
2021/03/12 11:40:20;;;;;;;20.52;3.65;;;;;;;6.99;66.70;100312.72;5010833;28;20037;-76
2021/03/12 11:42:45;;;;;;;18.90;3.42;;;;;;;6.87;67.78;100313.75;5021352;28;20045;-78
2021/03/12 11:45:14;;;;;;;16.20;3.60;;;;;;;6.78;67.24;100322.38;5025327;28;20378;-77
2021/03/12 11:47:41;;;;;;;14.52;3.80;;;;;;;6.73;68.04;100322.78;5039144;28;20083;-77
2021/03/12 11:50:09;;;;;;;12.95;3.58;;;;;;;6.86;68.89;100322.56;5004731;28;20052;-77
2021/03/12 11:52:36;;;;;;;12.88;3.17;;;;;;;7.13;67.86;100324.53;5004628;28;20076;-76
2021/03/12 11:55:04;;;;;;;12.43;3.38;;;;;;;7.26;67.59;100313.84;5027921;28;20445;-77
2021/03/12 11:57:29;;;;;;;16.98;2.97;;;;;;;7.33;66.25;100322.78;4995167;28;20041;-76
2021/03/12 11:59:55;;;;;;;10.25;2.90;;;;;;;7.34;64.56;100303.53;5021427;28;20603;-76